Time;durP1;ratioP1;P1;durP2;ratioP2;P2;SDS_P1;SDS_P2;PMS_P1;PMS_P2;Temp;Humidity;BMP_temperature;BMP_pressure;BME280_temperature;BME280_humidity;BME280_pressure;Samples;Min_cycle;Max_cycle;Signal;HPM_P1;HPM_P2
2021/03/24 00:01:38;;;;;;;37.93;21.57;;;4.50;99.90;;;;;;5095325;28;20176;-68
2021/03/24 00:04:04;;;;;;;31.80;20.30;;;4.40;99.90;;;;;;5095392;28;20392;-68
2021/03/24 00:06:31;;;;;;;29.00;19.38;;;4.50;99.90;;;;;;5095395;28;20179;-68
2021/03/24 00:08:57;;;;;;;30.27;20.30;;;4.60;99.90;;;;;;5095148;28;20660;-68
2021/03/24 00:11:22;;;;;;;30.87;21.17;;;4.50;99.90;;;;;;5095187;28;20206;-68
2021/03/24 00:13:49;;;;;;;36.43;19.93;;;4.60;99.90;;;;;;5095069;28;20433;-68
2021/03/24 00:16:15;;;;;;;35.13;21.85;;;4.50;99.90;;;;;;5094478;28;20170;-68
2021/03/24 00:18:40;;;;;;;30.70;19.20;;;4.50;99.90;;;;;;5095150;28;20167;-68
2021/03/24 00:21:07;;;;;;;31.40;20.73;;;4.40;99.90;;;;;;5095024;28;20208;-68
2021/03/24 00:23:32;;;;;;;30.88;20.40;;;4.40;99.90;;;;;;5095030;28;20195;-68
2021/03/24 00:25:58;;;;;;;31.53;21.27;;;4.50;99.90;;;;;;5094958;28;20693;-67
2021/03/24 00:28:24;;;;;;;30.37;20.63;;;4.40;99.90;;;;;;5094941;28;20186;-68
2021/03/24 00:30:50;;;;;;;28.87;20.27;;;4.30;99.90;;;;;;5094853;28;20473;-68
2021/03/24 00:33:23;;;;;;;31.60;20.83;;;4.40;99.90;;;;;;5094800;28;20198;-68
2021/03/24 00:35:50;;;;;;;31.45;20.02;;;4.50;99.90;;;;;;5095087;28;20533;-68
2021/03/24 00:38:18;;;;;;;35.65;22.35;;;4.30;99.90;;;;;;5094765;28;20675;-68
2021/03/24 00:40:47;;;;;;;33.38;22.02;;;4.30;99.90;;;;;;5094883;28;20640;-68
2021/03/24 00:43:13;;;;;;;32.78;20.75;;;4.20;99.90;;;;;;5095694;28;20198;-68
2021/03/24 00:45:40;;;;;;;31.65;20.55;;;4.20;99.90;;;;;;5095222;28;20184;-68
2021/03/24 00:48:25;;;;;;;35.70;19.48;;;4.20;99.90;;;;;;5096114;28;20197;-68
2021/03/24 00:50:50;;;;;;;35.78;19.60;;;4.20;99.90;;;;;;5094792;28;20268;-68
2021/03/24 00:53:17;;;;;;;31.90;20.80;;;4.10;99.90;;;;;;5094480;28;20552;-68
2021/03/24 00:55:43;;;;;;;33.28;20.67;;;4.10;99.90;;;;;;5094781;28;20194;-68
2021/03/24 00:58:09;;;;;;;29.43;20.03;;;4.10;99.90;;;;;;5094651;28;20160;-68
2021/03/24 01:00:38;;;;;;;35.10;19.63;;;4.10;99.90;;;;;;5094638;28;20207;-68
2021/03/24 01:03:04;;;;;;;28.83;18.95;;;4.10;99.90;;;;;;5092984;28;20195;-68
2021/03/24 01:05:30;;;;;;;41.77;21.73;;;4.20;99.90;;;;;;5094840;28;20175;-68
2021/03/24 01:08:01;;;;;;;35.20;21.93;;;4.10;99.90;;;;;;5094020;28;20469;-68
2021/03/24 01:10:30;;;;;;;33.78;21.55;;;4.30;99.90;;;;;;5094360;28;20234;-68
2021/03/24 01:12:56;;;;;;;31.50;20.02;;;4.10;99.90;;;;;;5094115;28;20551;-68
2021/03/24 01:15:22;;;;;;;33.20;20.53;;;4.00;99.90;;;;;;5094085;28;20206;-68
2021/03/24 01:17:48;;;;;;;33.10;20.92;;;3.90;99.90;;;;;;5094314;28;20423;-68
2021/03/24 01:20:15;;;;;;;29.65;19.27;;;4.20;99.90;;;;;;5094149;28;20202;-68
2021/03/24 01:22:41;;;;;;;29.35;19.52;;;4.10;99.90;;;;;;5093781;28;20347;-68
2021/03/24 01:25:08;;;;;;;33.07;19.83;;;4.00;99.90;;;;;;5094121;28;20194;-68
2021/03/24 01:27:34;;;;;;;34.92;19.85;;;4.10;99.90;;;;;;5092743;28;20392;-68
2021/03/24 01:29:59;;;;;;;28.10;18.40;;;4.20;99.90;;;;;;5093972;28;20214;-68
2021/03/24 01:32:25;;;;;;;32.67;21.37;;;4.20;99.90;;;;;;5093603;28;20230;-68
2021/03/24 01:34:50;;;;;;;38.43;20.50;;;4.30;99.90;;;;;;5093695;28;20179;-68
2021/03/24 01:37:16;;;;;;;30.33;20.37;;;4.30;99.90;;;;;;5093972;28;20505;-68
2021/03/24 01:39:41;;;;;;;28.50;19.10;;;4.20;99.90;;;;;;5093480;28;20168;-68
2021/03/24 01:42:08;;;;;;;34.67;20.67;;;4.20;99.90;;;;;;5093432;28;20182;-67
2021/03/24 01:45:28;;;;;;;36.70;18.65;;;4.20;99.90;;;;;;5093493;28;20190;-68
2021/03/24 01:47:55;;;;;;;27.30;19.70;;;4.10;99.90;;;;;;5093349;28;20163;-67
2021/03/24 01:50:28;;;;;;;32.13;19.75;;;4.20;99.90;;;;;;5093400;28;20218;-68
2021/03/24 01:52:53;;;;;;;32.72;21.20;;;4.10;99.90;;;;;;5093672;28;20257;-68
2021/03/24 01:55:19;;;;;;;28.33;18.90;;;4.10;99.90;;;;;;5093351;28;20171;-67
2021/03/24 01:57:45;;;;;;;38.45;20.80;;;4.00;99.90;;;;;;5093533;28;20256;-67
2021/03/24 02:00:18;;;;;;;28.40;19.60;;;3.80;99.90;;;;;;5093566;28;20175;-67
2021/03/24 02:02:44;;;;;;;31.58;20.08;;;3.90;99.90;;;;;;5093187;28;20668;-67
2021/03/24 02:05:10;;;;;;;33.67;18.73;;;4.00;99.90;;;;;;5093755;28;20167;-67
2021/03/24 02:07:53;;;;;;;34.25;20.27;;;3.90;99.90;;;;;;5092996;28;20179;-68
2021/03/24 02:10:41;;;;;;;32.60;18.90;;;3.80;99.90;;;;;;5093386;28;20253;-68
2021/03/24 02:13:23;;;;;;;36.90;18.65;;;3.90;99.90;;;;;;5093082;28;20187;-68
2021/03/24 02:15:55;;;;;;;35.42;19.80;;;3.90;99.90;;;;;;5093182;28;20238;-68
2021/03/24 02:18:23;;;;;;;30.90;18.58;;;3.80;99.90;;;;;;5093193;28;20147;-68
2021/03/24 02:21:05;;;;;;;31.70;19.77;;;3.80;99.90;;;;;;5093014;28;20301;-68
2021/03/24 02:23:39;;;;;;;30.42;19.00;;;4.10;99.90;;;;;;5093032;28;20183;-68
2021/03/24 02:26:12;;;;;;;29.27;19.48;;;4.00;99.90;;;;;;5093251;28;20207;-68
2021/03/24 02:28:40;;;;;;;34.53;21.50;;;3.80;99.90;;;;;;5092920;28;20199;-68
2021/03/24 02:31:07;;;;;;;28.30;18.38;;;3.70;99.90;;;;;;5093065;28;20671;-67
2021/03/24 02:33:37;;;;;;;35.63;20.13;;;3.70;99.90;;;;;;5092855;28;20271;-68
2021/03/24 02:36:06;;;;;;;29.23;18.25;;;3.80;99.90;;;;;;5093164;28;20265;-68
2021/03/24 02:38:35;;;;;;;31.70;19.60;;;3.80;99.90;;;;;;5093349;28;20171;-68
2021/03/24 02:41:02;;;;;;;30.90;18.35;;;3.80;99.90;;;;;;5097080;28;20636;-68
2021/03/24 02:43:29;;;;;;;28.95;18.42;;;3.90;99.90;;;;;;5096920;28;20203;-68
2021/03/24 02:45:58;;;;;;;31.48;20.52;;;3.90;99.90;;;;;;5096949;28;20178;-68
2021/03/24 02:48:28;;;;;;;32.10;19.75;;;4.00;99.90;;;;;;5096940;28;20164;-68
2021/03/24 02:50:55;;;;;;;32.28;17.63;;;4.10;99.90;;;;;;5097018;28;20195;-68
2021/03/24 02:53:22;;;;;;;33.67;20.83;;;4.10;99.90;;;;;;5097223;28;20215;-68
2021/03/24 02:55:48;;;;;;;30.80;19.08;;;4.00;99.90;;;;;;5096756;28;20164;-68
2021/03/24 02:58:14;;;;;;;43.30;20.10;;;3.90;99.90;;;;;;5097240;28;20175;-68
2021/03/24 03:00:39;;;;;;;33.17;19.67;;;4.00;99.90;;;;;;5096701;28;20513;-68
2021/03/24 03:03:13;;;;;;;44.60;21.67;;;3.90;99.90;;;;;;5096316;28;20200;-68
2021/03/24 03:05:40;;;;;;;28.15;18.23;;;3.90;99.90;;;;;;5095277;28;20413;-68
2021/03/24 03:08:15;;;;;;;33.30;19.48;;;3.90;99.90;;;;;;5096443;28;20644;-68
2021/03/24 03:10:58;;;;;;;29.98;20.25;;;3.90;99.90;;;;;;5096455;28;20251;-68
2021/03/24 03:13:50;;;;;;;32.33;19.63;;;3.90;99.90;;;;;;5096474;28;20190;-68
2021/03/24 03:16:35;;;;;;;29.88;17.65;;;3.80;99.90;;;;;;5095711;28;20556;-68
2021/03/24 03:19:17;;;;;;;35.63;20.65;;;3.70;99.90;;;;;;5096571;28;20170;-68
2021/03/24 03:21:47;;;;;;;32.33;19.98;;;3.80;99.90;;;;;;5096216;28;20159;-68
2021/03/24 03:24:15;;;;;;;34.47;19.30;;;3.90;99.90;;;;;;5096622;28;20156;-68
2021/03/24 03:26:42;;;;;;;32.25;18.85;;;4.00;99.90;;;;;;5096016;28;20171;-68
2021/03/24 03:29:13;;;;;;;29.63;19.33;;;3.90;99.90;;;;;;5096050;28;20641;-68
2021/03/24 03:31:42;;;;;;;31.00;20.70;;;3.70;99.90;;;;;;5095895;28;20198;-68
2021/03/24 03:34:10;;;;;;;30.40;19.17;;;3.70;99.90;;;;;;5095914;28;20235;-68
2021/03/24 03:36:38;;;;;;;34.03;19.48;;;3.50;99.90;;;;;;5096152;28;20167;-68
2021/03/24 03:39:06;;;;;;;31.10;18.52;;;3.50;99.90;;;;;;5096142;28;20175;-69
2021/03/24 03:41:33;;;;;;;35.80;20.88;;;3.50;99.90;;;;;;5095734;28;20167;-68
2021/03/24 03:44:00;;;;;;;31.02;18.45;;;3.50;99.90;;;;;;5095990;28;20176;-68
2021/03/24 03:46:30;;;;;;;34.90;22.20;;;3.40;99.90;;;;;;5095679;28;20174;-68
2021/03/24 03:48:56;;;;;;;34.83;20.40;;;3.40;99.90;;;;;;5095317;28;20647;-68
2021/03/24 03:52:00;;;;;;;36.00;20.07;;;3.40;99.90;;;;;;5094739;28;20333;-68
2021/03/24 03:54:33;;;;;;;33.75;20.50;;;3.40;99.90;;;;;;5095889;28;20601;-69
2021/03/24 03:57:13;;;;;;;31.95;19.13;;;3.40;99.90;;;;;;5095832;28;20579;-67
2021/03/24 03:59:44;;;;;;;33.42;21.00;;;3.50;99.90;;;;;;5095722;28;20158;-67
2021/03/24 04:02:14;;;;;;;27.20;17.73;;;3.60;99.90;;;;;;5095611;28;20175;-67
2021/03/24 04:05:03;;;;;;;36.35;19.60;;;3.60;99.90;;;;;;5095323;28;20216;-67
2021/03/24 04:07:48;;;;;;;32.63;18.88;;;3.50;99.90;;;;;;5095545;28;20160;-67
2021/03/24 04:10:14;;;;;;;36.08;19.35;;;3.50;99.90;;;;;;5093852;28;20197;-68
2021/03/24 04:12:40;;;;;;;34.63;21.27;;;3.40;99.90;;;;;;5095161;28;20601;-68
2021/03/24 04:15:18;;;;;;;37.10;21.30;;;3.40;99.90;;;;;;5095090;28;20168;-68
2021/03/24 04:17:49;;;;;;;33.47;20.40;;;3.30;99.90;;;;;;5095101;28;20163;-68
2021/03/24 04:20:18;;;;;;;30.17;18.25;;;3.50;99.90;;;;;;5095103;28;20570;-67
2021/03/24 04:22:45;;;;;;;32.10;19.35;;;3.50;99.90;;;;;;5095160;28;20191;-68
2021/03/24 04:25:18;;;;;;;33.58;20.27;;;3.70;99.90;;;;;;5094930;28;20171;-68
2021/03/24 04:27:46;;;;;;;31.67;18.13;;;3.50;99.90;;;;;;5095143;28;20162;-68
2021/03/24 04:30:16;;;;;;;33.13;17.95;;;3.40;99.90;;;;;;5095555;28;20191;-68
2021/03/24 04:32:41;;;;;;;31.42;19.48;;;3.30;99.90;;;;;;5094825;28;20190;-68
2021/03/24 04:35:08;;;;;;;27.17;19.67;;;3.40;99.90;;;;;;5094746;28;20164;-68
2021/03/24 04:37:43;;;;;;;32.15;19.23;;;3.40;99.90;;;;;;5094674;28;20171;-68
2021/03/24 04:40:37;;;;;;;36.33;18.83;;;3.40;99.90;;;;;;5094605;28;20159;-68
2021/03/24 04:43:10;;;;;;;39.03;20.02;;;3.50;99.90;;;;;;5094665;28;20188;-69
2021/03/24 04:45:59;;;;;;;35.50;21.08;;;3.40;99.90;;;;;;5094492;28;20195;-68
2021/03/24 04:48:45;;;;;;;34.30;17.20;;;3.50;99.90;;;;;;5094486;28;20636;-68
2021/03/24 04:51:16;;;;;;;32.45;19.75;;;3.40;99.90;;;;;;5094546;28;20195;-68
2021/03/24 04:53:46;;;;;;;32.22;20.13;;;3.30;99.90;;;;;;5094452;28;20187;-68
2021/03/24 04:56:15;;;;;;;34.42;19.65;;;3.20;99.90;;;;;;5094655;28;20697;-68
2021/03/24 04:58:44;;;;;;;34.72;19.08;;;3.30;99.90;;;;;;5094217;28;20164;-68
2021/03/24 05:01:21;;;;;;;31.23;17.65;;;3.30;99.90;;;;;;5094583;28;20651;-68
2021/03/24 05:03:51;;;;;;;32.72;20.38;;;3.30;99.90;;;;;;5094383;28;20191;-68
2021/03/24 05:06:36;;;;;;;32.63;19.20;;;3.30;99.90;;;;;;5094324;28;20220;-68
2021/03/24 05:09:05;;;;;;;33.63;20.25;;;3.50;99.90;;;;;;5094154;28;20194;-68
2021/03/24 05:11:35;;;;;;;30.55;17.88;;;3.50;99.90;;;;;;5094014;28;20234;-68
2021/03/24 05:14:31;;;;;;;33.00;19.45;;;3.40;99.90;;;;;;5094360;28;20152;-68
2021/03/24 05:17:12;;;;;;;38.83;20.80;;;3.30;99.90;;;;;;5094065;28;20156;-68
2021/03/24 05:19:38;;;;;;;32.55;18.23;;;3.30;99.90;;;;;;5094150;28;20144;-69
2021/03/24 05:22:09;;;;;;;29.97;20.30;;;3.20;99.90;;;;;;5094081;28;20269;-68
2021/03/24 05:24:39;;;;;;;33.90;18.98;;;3.10;99.90;;;;;;5093830;28;20408;-68
2021/03/24 05:27:30;;;;;;;31.33;18.88;;;3.20;1.00;;;;;;5093663;28;20167;-68
2021/03/24 05:30:02;;;;;;;34.05;19.70;;;3.30;99.90;;;;;;5084889;28;20175;-68
2021/03/24 05:32:37;;;;;;;27.88;17.90;;;3.30;99.90;;;;;;5093860;28;20652;-68
2021/03/24 05:35:17;;;;;;;31.63;19.77;;;3.30;99.90;;;;;;5093663;28;20179;-68
2021/03/24 05:37:43;;;;;;;37.53;21.23;;;3.30;99.90;;;;;;5093931;28;20162;-68
2021/03/24 05:40:27;;;;;;;34.10;20.17;;;3.40;99.90;;;;;;5095082;28;20168;-68
2021/03/24 05:43:04;;;;;;;34.58;19.65;;;3.50;99.90;;;;;;5094837;28;20199;-69
2021/03/24 05:45:51;;;;;;;31.85;19.60;;;3.30;99.90;;;;;;5093897;28;20198;-69
2021/03/24 05:48:43;;;;;;;32.05;16.80;;;3.20;99.90;;;;;;5093532;28;20175;-69
2021/03/24 05:51:57;;;;;;;35.75;20.35;;;3.30;99.90;;;;;;5093376;28;20212;-68
2021/03/24 05:54:45;;;;;;;27.77;17.27;;;3.30;99.90;;;;;;5094090;28;20171;-68
2021/03/24 05:57:36;;;;;;;36.67;19.95;;;3.30;99.90;;;;;;5093167;28;20152;-69
2021/03/24 06:00:19;;;;;;;31.65;19.35;;;3.30;99.90;;;;;;5078351;28;20180;-68
2021/03/24 06:03:04;;;;;;;31.83;19.58;;;3.40;99.90;;;;;;5093087;28;20187;-68
2021/03/24 06:05:37;;;;;;;43.42;20.75;;;3.50;99.90;;;;;;5093012;28;20152;-68
2021/03/24 06:08:41;;;;;;;30.63;18.30;;;3.60;99.90;;;;;;5092810;28;20186;-68
2021/03/24 06:11:49;;;;;;;34.22;21.08;;;3.50;99.90;;;;;;5092894;28;20175;-68
2021/03/24 06:14:41;;;;;;;32.92;18.83;;;3.60;99.90;;;;;;5010234;28;20177;-68
2021/03/24 06:17:44;;;;;;;38.22;20.60;;;3.70;99.90;;;;;;5092978;28;20234;-68
2021/03/24 06:20:19;;;;;;;33.30;19.73;;;3.70;99.90;;;;;;5093051;28;20179;-68
2021/03/24 06:23:07;;;;;;;32.70;19.23;;;3.80;99.90;;;;;;5092798;28;20197;-68
2021/03/24 06:25:51;;;;;;;32.92;18.42;;;3.90;99.90;;;;;;5092679;28;20171;-68
2021/03/24 06:28:28;;;;;;;32.08;18.50;;;4.10;99.90;;;;;;5093080;28;20577;-69
2021/03/24 06:31:15;;;;;;;33.38;19.02;;;4.00;99.90;;;;;;5092745;28;20182;-68
2021/03/24 06:34:11;;;;;;;35.00;19.25;;;4.10;99.90;;;;;;5092708;28;20187;-68
2021/03/24 06:36:55;;;;;;;30.15;18.92;;;4.00;99.90;;;;;;5092930;28;20616;-68
2021/03/24 06:39:44;;;;;;;38.35;19.60;;;4.20;99.90;;;;;;5092394;28;20246;-68
2021/03/24 06:42:17;;;;;;;31.77;19.75;;;4.40;99.90;;;;;;5092679;28;20186;-68
2021/03/24 06:45:01;;;;;;;35.67;21.40;;;4.40;99.90;;;;;;5092667;28;20156;-68
2021/03/24 06:47:50;;;;;;;30.42;18.48;;;4.30;99.90;;;;;;5092928;28;20167;-68
2021/03/24 06:50:41;;;;;;;30.40;18.20;;;4.50;99.90;;;;;;5092348;28;20551;-68
2021/03/24 06:53:18;;;;;;;39.78;20.85;;;4.70;91.20;;;;;;5092273;28;20266;-68
2021/03/24 06:56:22;;;;;;;35.22;19.45;;;4.80;77.50;;;;;;5092251;28;20151;-69
2021/03/24 06:59:20;;;;;;;36.80;20.00;;;4.90;27.20;;;;;;5092438;28;20212;-68
2021/03/24 07:02:13;;;;;;;36.85;20.60;;;5.10;23.40;;;;;;5092477;28;20148;-68
2021/03/24 07:05:16;;;;;;;33.10;19.70;;;5.30;1.00;;;;;;5092286;28;20162;-67
2021/03/24 07:08:00;;;;;;;31.70;17.60;;;5.30;1.00;;;;;;5092325;28;20207;-68
2021/03/24 07:10:37;;;;;;;35.70;19.40;;;5.50;1.00;;;;;;5092412;28;20203;-68
2021/03/24 07:13:23;;;;;;;40.70;20.60;;;5.80;1.00;;;;;;5092256;28;20183;-68
2021/03/24 07:16:07;;;;;;;36.13;21.30;;;6.10;1.00;;;;;;5092095;28;20194;-68
2021/03/24 07:18:51;;;;;;;37.13;19.73;;;6.40;1.00;;;;;;5092627;28;20629;-68
2021/03/24 07:22:02;;;;;;;35.90;19.02;;;6.60;1.00;;;;;;5092203;28;20238;-68
2021/03/24 07:24:43;;;;;;;32.70;18.75;;;6.70;1.00;;;;;;5093702;28;20167;-68
2021/03/24 07:27:23;;;;;;;32.03;18.40;;;6.80;1.00;;;;;;5095921;28;20520;-68
2021/03/24 07:30:38;;;;;;;40.38;18.48;;;7.10;1.00;;;;;;5096487;28;20532;-68
2021/03/24 07:33:20;;;;;;;31.38;17.60;;;7.10;1.00;;;;;;5061287;28;20203;-68
2021/03/24 07:36:12;;;;;;;33.35;17.42;;;7.20;1.00;;;;;;5095975;28;20570;-68
2021/03/24 07:39:03;;;;;;;43.13;23.70;;;7.30;1.00;;;;;;5095680;28;20158;-68
2021/03/24 07:42:02;;;;;;;37.83;21.42;;;7.40;1.00;;;;;;5095589;28;20220;-69
2021/03/24 07:44:47;;;;;;;32.05;18.00;;;7.50;1.00;;;;;;5095794;28;20182;-68
2021/03/24 07:47:48;;;;;;;33.65;18.13;;;7.60;1.00;;;;;;5095517;28;20158;-68
2021/03/24 07:50:41;;;;;;;32.65;17.77;;;7.70;1.00;;;;;;5026368;28;20269;-68
2021/03/24 07:53:22;;;;;;;30.08;16.90;;;7.80;1.00;;;;;;5095090;28;20670;-67
2021/03/24 07:56:01;;;;;;;38.30;18.23;;;7.60;1.00;;;;;;5095532;28;20163;-67
2021/03/24 07:58:44;;;;;;;35.22;18.77;;;7.70;1.00;;;;;;5095831;28;20163;-67
2021/03/24 08:01:35;;;;;;;33.33;20.40;;;7.70;1.00;;;;;;5095491;28;20213;-68
2021/03/24 08:04:20;;;;;;;30.83;18.20;;;8.00;1.00;;;;;;5095279;28;20629;-67
2021/03/24 08:07:07;;;;;;;31.50;19.17;;;8.10;1.00;;;;;;5095439;28;20195;-67
2021/03/24 08:09:50;;;;;;;31.52;17.80;;;8.20;1.00;;;;;;5094976;28;20597;-67
2021/03/24 08:12:57;;;;;;;29.42;16.67;;;8.40;1.00;;;;;;5095143;28;20199;-67
2021/03/24 08:15:37;;;;;;;29.88;16.60;;;8.50;1.00;;;;;;5095250;28;20148;-67
2021/03/24 08:18:10;;;;;;;34.72;17.83;;;8.60;1.00;;;;;;5095079;28;20167;-68
2021/03/24 08:20:41;;;;;;;27.92;17.25;;;8.80;1.00;;;;;;5095147;28;20211;-67
2021/03/24 08:23:32;;;;;;;36.95;17.40;;;8.80;1.00;;;;;;5094738;28;20187;-68
2021/03/24 08:26:15;;;;;;;26.85;17.58;;;9.00;1.00;;;;;;5094445;28;20160;-67
2021/03/24 08:29:10;;;;;;;38.75;18.48;;;9.10;1.00;;;;;;5094647;28;20159;-67
2021/03/24 08:32:12;;;;;;;28.75;18.38;;;9.20;1.00;;;;;;5094214;28;20193;-67
2021/03/24 08:34:59;;;;;;;25.60;16.40;;;9.30;1.00;;;;;;5094588;28;20168;-68
2021/03/24 08:37:52;;;;;;;26.60;18.02;;;9.60;1.00;;;;;;5093882;28;20191;-68
2021/03/24 08:40:27;;;;;;;33.50;18.20;;;9.90;1.00;;;;;;5094402;28;20150;-68
2021/03/24 08:43:21;;;;;;;28.07;15.67;;;9.70;1.00;;;;;;5094526;28;20420;-68
2021/03/24 08:46:11;;;;;;;30.53;17.93;;;9.70;1.00;;;;;;5094621;28;20471;-68
2021/03/24 08:48:46;;;;;;;28.03;17.43;;;9.90;1.00;;;;;;5094525;28;20747;-68
2021/03/24 08:51:21;;;;;;;25.77;16.90;;;10.30;1.00;;;;;;5094296;28;20444;-68
2021/03/24 08:54:19;;;;;;;26.57;17.10;;;10.20;1.00;;;;;;5094067;28;20425;-68
2021/03/24 08:57:02;;;;;;;28.73;18.77;;;10.20;1.00;;;;;;5094262;28;20440;-68
2021/03/24 08:59:51;;;;;;;31.43;18.17;;;10.40;1.00;;;;;;5092613;28;20571;-67
2021/03/24 09:02:39;;;;;;;28.37;16.57;;;10.50;1.00;;;;;;5094312;28;20439;-67
2021/03/24 09:05:18;;;;;;;34.13;17.23;;;10.70;1.00;;;;;;5094109;28;20819;-68
2021/03/24 09:08:10;;;;;;;30.30;18.20;;;10.90;1.00;;;;;;5095024;28;20810;-68
2021/03/24 09:11:13;;;;;;;36.20;21.17;;;11.10;1.00;;;;;;5094313;28;20483;-68
2021/03/24 09:13:59;;;;;;;33.93;17.53;;;11.00;1.00;;;;;;5094284;28;20551;-68
2021/03/24 09:16:34;;;;;;;31.13;19.03;;;11.20;1.00;;;;;;5094529;28;20382;-68
2021/03/24 09:19:30;;;;;;;31.73;18.10;;;11.40;1.00;;;;;;5093950;28;20525;-68
2021/03/24 09:21:56;;;;;;;33.77;19.23;;;11.30;1.00;;;;;;5093458;28;20907;-68
2021/03/24 09:24:53;;;;;;;33.87;19.70;;;11.50;1.00;;;;;;5093398;28;20412;-68
2021/03/24 09:27:52;;;;;;;29.30;18.87;;;11.70;1.00;;;;;;5093433;28;20455;-68
2021/03/24 09:30:32;;;;;;;35.13;19.57;;;11.80;1.00;;;;;;5092148;28;20492;-68
2021/03/24 09:33:19;;;;;;;34.90;19.70;;;11.70;1.00;;;;;;5093444;28;20441;-68
2021/03/24 09:36:19;;;;;;;35.90;18.90;;;12.00;1.00;;;;;;5093207;28;20815;-68
2021/03/24 09:38:47;;;;;;;33.33;19.17;;;12.10;1.00;;;;;;5093591;28;20871;-68
2021/03/24 09:41:18;;;;;;;33.40;19.37;;;12.30;1.00;;;;;;5093439;28;20405;-68
2021/03/24 09:43:50;;;;;;;32.90;20.83;;;12.40;1.00;;;;;;5093399;28;20602;-68
2021/03/24 09:46:44;;;;;;;30.77;21.03;;;12.60;1.00;;;;;;5094003;28;20420;-68
2021/03/24 09:49:30;;;;;;;26.50;17.10;;;12.90;1.00;;;;;;5090561;28;20421;-68
2021/03/24 09:52:09;;;;;;;35.57;20.23;;;12.90;1.00;;;;;;5093450;28;20510;-67
2021/03/24 09:54:35;;;;;;;36.00;20.73;;;13.10;1.00;;;;;;5093648;28;20404;-67
2021/03/24 09:57:08;;;;;;;32.77;20.00;;;13.40;99.90;;;;;;5093289;28;20929;-68
2021/03/24 09:59:48;;;;;;;38.20;22.40;;;13.50;99.90;;;;;;5093412;28;20452;-67
2021/03/24 10:02:25;;;;;;;39.30;20.50;;;13.60;99.90;;;;;;5091444;28;20417;-68
2021/03/24 10:04:59;;;;;;;31.40;20.37;;;13.30;99.90;;;;;;5093560;28;20429;-68
2021/03/24 10:07:30;;;;;;;32.60;19.93;;;13.70;99.90;;;;;;5093690;28;20872;-68
2021/03/24 10:10:19;;;;;;;32.03;20.50;;;14.00;99.90;;;;;;5093005;28;20456;-68
2021/03/24 10:12:55;;;;;;;30.73;20.33;;;13.60;99.90;;;;;;5093284;28;20422;-68
2021/03/24 10:15:20;;;;;;;36.67;22.87;;;14.10;99.90;;;;;;5093749;28;20390;-69
2021/03/24 10:18:13;;;;;;;33.77;21.87;;;14.30;99.90;;;;;;5093025;28;20956;-68
2021/03/24 10:20:42;;;;;;;44.97;24.47;;;14.50;99.90;;;;;;5093156;28;20638;-68
2021/03/24 10:23:24;;;;;;;38.10;21.43;;;14.70;99.90;;;;;;5092642;28;20518;-68
2021/03/24 10:25:53;;;;;;;38.40;21.93;;;14.60;99.90;;;;;;5092730;28;20399;-68
2021/03/24 10:28:37;;;;;;;40.97;25.17;;;14.50;99.90;;;;;;5093099;28;20418;-68
2021/03/24 10:31:14;;;;;;;41.33;24.30;;;14.60;99.90;;;;;;5093122;28;20439;-68
2021/03/24 10:33:46;;;;;;;41.93;24.03;;;14.90;99.90;;;;;;5092952;28;20516;-67
2021/03/24 10:36:21;;;;;;;37.83;25.30;;;14.40;99.90;;;;;;5092540;28;20385;-68
2021/03/24 10:39:00;;;;;;;44.97;29.40;;;15.30;99.90;;;;;;5092838;28;20397;-69
2021/03/24 10:41:38;;;;;;;43.73;27.70;;;15.30;99.90;;;;;;5093200;28;20398;-68
2021/03/24 10:44:13;;;;;;;52.67;28.40;;;15.50;99.90;;;;;;5092657;28;20465;-68
2021/03/24 10:47:16;;;;;;;42.80;25.87;;;15.70;99.90;;;;;;5092869;28;20388;-68
2021/03/24 10:50:03;;;;;;;48.27;28.23;;;16.00;99.90;;;;;;5092780;28;20392;-68
2021/03/24 10:52:39;;;;;;;44.57;28.63;;;15.70;99.90;;;;;;5092357;28;20477;-68
2021/03/24 10:55:17;;;;;;;48.70;28.27;;;15.70;99.90;;;;;;5092782;28;20881;-68
2021/03/24 10:58:19;;;;;;;54.50;29.70;;;15.80;99.90;;;;;;5092872;28;20393;-68
2021/03/24 11:00:50;;;;;;;52.40;28.90;;;16.20;99.90;;;;;;5096633;28;20762;-68
2021/03/24 11:03:26;;;;;;;49.40;26.73;;;16.10;99.90;;;;;;5096445;28;20444;-69
2021/03/24 11:06:04;;;;;;;49.30;30.53;;;16.20;99.90;;;;;;5096294;28;20428;-69
2021/03/24 11:08:36;;;;;;;57.80;36.17;;;16.00;99.90;;;;;;5096876;28;20906;-68
2021/03/24 11:11:23;;;;;;;67.97;33.87;;;16.50;99.90;;;;;;5096138;28;20452;-68
2021/03/24 11:13:49;;;;;;;63.13;33.40;;;16.90;99.90;;;;;;5096146;28;20428;-69
2021/03/24 11:16:29;;;;;;;60.60;35.97;;;16.90;99.90;;;;;;5095868;28;20402;-68
2021/03/24 11:19:06;;;;;;;53.07;30.90;;;17.20;99.90;;;;;;5096295;28;20458;-68
2021/03/24 11:21:43;;;;;;;53.70;28.90;;;17.40;99.90;;;;;;5096166;28;20393;-69
2021/03/24 11:24:41;;;;;;;51.40;29.70;;;16.90;99.90;;;;;;5097153;28;20481;-68
2021/03/24 11:27:36;;;;;;;45.97;28.53;;;17.10;99.90;;;;;;5095334;28;20755;-67
2021/03/24 11:30:38;;;;;;;53.90;30.40;;;16.80;99.90;;;;;;5091449;28;20848;-68
2021/03/24 11:33:27;;;;;;;50.27;30.17;;;17.00;99.90;;;;;;5095107;28;20425;-69
2021/03/24 11:35:59;;;;;;;50.43;27.90;;;17.20;99.90;;;;;;5095799;28;20899;-68
2021/03/24 11:38:37;;;;;;;52.43;28.83;;;17.50;99.90;;;;;;5095374;28;20401;-68
2021/03/24 11:41:11;;;;;;;44.63;26.83;;;17.60;99.90;;;;;;5095590;28;20746;-69
2021/03/24 11:43:41;;;;;;;46.00;28.27;;;17.80;99.90;;;;;;5095160;28;20424;-68
2021/03/24 11:46:15;;;;;;;55.40;27.53;;;17.80;99.90;;;;;;5095368;28;20404;-68
2021/03/24 11:48:58;;;;;;;46.47;26.30;;;17.60;99.90;;;;;;5094986;28;20413;-68
2021/03/24 11:51:48;;;;;;;37.70;25.40;;;17.70;99.90;;;;;;5094868;28;20470;-69
2021/03/24 11:54:29;;;;;;;43.07;25.67;;;18.00;99.90;;;;;;5095418;28;20448;-69
2021/03/24 11:56:57;;;;;;;39.60;25.13;;;17.70;99.90;;;;;;5095356;28;20398;-69
2021/03/24 12:00:00;;;;;;;44.07;26.53;;;18.00;99.90;;;;;;5094980;28;20458;-69
2021/03/24 12:02:53;;;;;;;44.00;24.13;;;18.70;99.90;;;;;;5095457;28;20443;-69
2021/03/24 12:05:30;;;;;;;48.47;30.63;;;19.00;99.90;;;;;;5095417;28;20459;-69
2021/03/24 12:08:08;;;;;;;39.20;26.17;;;18.20;99.90;;;;;;5095169;28;20422;-68
2021/03/24 12:10:36;;;;;;;52.73;27.53;;;18.40;99.90;;;;;;5093045;28;20478;-69
2021/03/24 12:13:33;;;;;;;48.30;27.70;;;18.20;99.90;;;;;;5095007;28;20429;-68
2021/03/24 12:16:06;;;;;;;46.07;27.33;;;18.10;99.90;;;;;;5087184;28;20760;-68
2021/03/24 12:18:40;;;;;;;47.40;27.17;;;18.80;99.90;;;;;;5095144;28;20385;-68
2021/03/24 12:21:15;;;;;;;45.80;26.70;;;18.90;99.90;;;;;;5094959;28;20422;-68
2021/03/24 12:23:40;;;;;;;43.53;25.80;;;18.60;99.90;;;;;;5094348;28;20428;-68
2021/03/24 12:26:06;;;;;;;42.60;25.97;;;19.40;99.90;;;;;;5094811;28;20416;-68
2021/03/24 12:28:42;;;;;;;38.67;25.00;;;19.10;99.90;;;;;;5093841;28;20198;-68
2021/03/24 12:31:12;;;;;;;39.10;25.67;;;19.30;99.90;;;;;;5094176;28;20233;-68
2021/03/24 12:33:48;;;;;;;36.80;25.30;;;19.20;99.90;;;;;;5094324;28;20465;-68
2021/03/24 12:36:21;;;;;;;52.13;28.00;;;19.30;99.90;;;;;;5094511;28;20402;-68
2021/03/24 12:38:54;;;;;;;42.77;25.10;;;19.90;99.90;;;;;;5093091;28;20406;-68
2021/03/24 12:41:30;;;;;;;38.27;23.23;;;20.00;99.90;;;;;;5094294;28;20387;-68
2021/03/24 12:44:07;;;;;;;41.03;24.20;;;19.80;99.90;;;;;;5094177;28;20409;-68
2021/03/24 12:46:33;;;;;;;42.50;23.27;;;20.10;99.90;;;;;;5094399;28;20505;-68
2021/03/24 12:48:59;;;;;;;35.50;23.47;;;19.90;99.90;;;;;;5094396;28;20423;-68
2021/03/24 12:51:27;;;;;;;44.10;25.63;;;20.10;99.90;;;;;;5094604;28;20240;-68
2021/03/24 12:53:59;;;;;;;40.10;25.53;;;20.30;99.90;;;;;;5094520;28;20435;-68
2021/03/24 12:56:32;;;;;;;37.20;22.37;;;19.10;99.90;;;;;;5094315;28;20412;-68
2021/03/24 12:59:10;;;;;;;37.27;24.60;;;20.10;99.90;;;;;;5094436;28;20390;-68
2021/03/24 13:01:55;;;;;;;36.43;22.93;;;19.90;99.90;;;;;;5094301;28;20955;-68
2021/03/24 13:04:30;;;;;;;34.83;23.30;;;20.80;99.90;;;;;;5094056;28;20410;-68
2021/03/24 13:07:25;;;;;;;39.80;23.87;;;20.30;99.90;;;;;;5094278;28;20398;-68
2021/03/24 13:10:22;;;;;;;30.87;20.93;;;20.10;99.90;;;;;;5094045;28;20427;-68
2021/03/24 13:13:16;;;;;;;34.07;20.57;;;21.30;99.90;;;;;;5094357;28;20437;-69
2021/03/24 13:16:03;;;;;;;32.10;20.13;;;21.60;99.90;;;;;;5094044;28;20435;-67
2021/03/24 13:18:57;;;;;;;39.00;22.23;;;20.30;99.90;;;;;;5094025;28;20862;-69
2021/03/24 13:21:30;;;;;;;42.37;22.70;;;20.20;99.90;;;;;;5094154;28;20426;-68
2021/03/24 13:24:33;;;;;;;31.63;21.43;;;20.80;99.90;;;;;;5093892;28;20420;-68
2021/03/24 13:27:14;;;;;;;31.53;21.57;;;21.50;99.90;;;;;;5093697;28;20393;-68
2021/03/24 13:29:54;;;;;;;35.20;24.10;;;22.00;99.90;;;;;;5093752;28;20382;-68
2021/03/24 13:32:48;;;;;;;33.70;21.57;;;21.40;99.90;;;;;;5093749;28;20462;-68